• Join FlightAware (Why Join?)
  • Login
  • US Flag 
07:38AM EST


 

Airport Tracker/Info


-or-


 

Live Flight TrackerFlight Track Log ✈ ASQ6151 ✈ 27-Oct-2013 ✈ KGSO - KORD

Flight Track Log - Related Links

Times and Time Zones

All times are in EDT time to prevent confusion due to time zone crossing. See the ASQ6151 flight status page for this flight to view local times or setup timezone preferences in your user account.

Time Position Orientation Groundspeed Altitude Reporting Facility
EDT Latitude Longitude Course Direction KTS MPH feet Rate Location/Type
04:40PM 36.0825 -80.0950 307° West 253 291 6,200  Level Atlanta Center
04:41PM 36.1142 -80.1706 297° West 266 306 9,000 2,160 Climbing Atlanta Center
04:42PM 36.1664 -80.2400 313° West 303 349 10,600 1,440 Climbing Atlanta Center
04:43PM 36.2253 -80.3247 311° West 321 369 11,900 1,080 Climbing Atlanta Center
04:44PM 36.5255 -80.4521 307° West  Level Estimated
04:44PM 36.2992 -80.4219 313° West 331 381 12,800  Level Atlanta Center
04:45PM 36.3683 -80.5114 314° West 346 398 14,200 1,440 Climbing Atlanta Center
04:46PM 36.4336 -80.6092 310° West 363 418 15,700 1,500 Climbing Atlanta Center
04:47PM 36.4969 -80.7072 309° West 375 432 17,200 1,380 Climbing Atlanta Center
04:48PM 36.5622 -80.8081 309° West 375 432 18,500 1,380 Climbing Atlanta Center
04:49PM 36.6253 -80.9089 308° West 370 426 20,000 1,500 Climbing Atlanta Center
04:50PM 36.6883 -81.0100 308° West 370 426 21,500 1,320 Climbing Atlanta Center
04:51PM 36.7469 -81.1036 308° West 375 432 22,700 1,320 Climbing Atlanta Center
04:52PM 36.8033 -81.2053 305° West 375 432 24,200 1,560 Climbing Atlanta Center
04:53PM 36.8747 -81.3167 309° West 375 432 25,900 1,380 Climbing Atlanta Center
04:53PM 36.9169 -81.3761 312° West 366 421 26,700 1,380 Climbing Indianapolis Center
04:54PM 36.9883 -81.4936 307° West 363 418 28,400 1,560 Climbing Indianapolis Center
04:55PM 37.0536 -81.5986 308° West 357 411 30,000 1,200 Climbing Indianapolis Center
04:57PM 37.1147 -81.6989 307° West 360 414 31,000 960 Climbing Indianapolis Center
04:58PM 37.1775 -81.8017 307° West 368 423 32,000 960 Climbing Indianapolis Center
04:59PM 37.2417 -81.9053 308° West 375 432 33,000 900 Climbing Indianapolis Center
05:00PM 37.3061 -82.0119 307° West 382 440 33,900 960 Climbing Indianapolis Center
05:01PM 37.3794 -82.1347 307° West 379 436 35,100 960 Climbing Indianapolis Center
05:02PM 37.4422 -82.2397 307° West 377 434 36,000 420 Climbing Indianapolis Center
05:03PM 37.5078 -82.3472 308° West 384 442 36,000  Level Indianapolis Center
05:04PM 37.5750 -82.4611 307° West 402 463 36,000  Level Indianapolis Center
05:05PM 37.6431 -82.5742 307° West 404 465 36,000  Level Indianapolis Center
05:06PM 37.7231 -82.7086 307° West 410 472 36,000  Level Indianapolis Center
05:07PM 37.7911 -82.8244 307° West 412 474 36,000  Level Indianapolis Center
05:08PM 37.8608 -82.9433 307° West 417 480 36,000  Level Indianapolis Center
05:09PM 37.9303 -83.0622 307° West 420 483 36,000  Level Indianapolis Center
05:10PM 37.9994 -83.1803 307° West 415 478 36,000  Level Indianapolis Center
05:11PM 38.0775 -83.3136 307° West 408 470 36,000  Level Indianapolis Center
05:12PM 38.1458 -83.4294 307° West 410 472 36,000  Level Indianapolis Center
05:13PM 38.2139 -83.5481 306° West 414 476 36,000  Level Indianapolis Center
05:14PM 38.2825 -83.6658 307° West 415 478 36,000  Level Indianapolis Center
05:15PM 38.3511 -83.7869 306° West 421 484 36,000  Level Indianapolis Center
05:16PM 38.4322 -83.9292 306° West 425 489 36,000  Level Indianapolis Center
05:17PM 38.5008 -84.0483 306° West 419 482 36,000  Level Indianapolis Center
05:18PM 38.5703 -84.1703 306° West 422 486 36,000  Level Indianapolis Center
05:19PM 38.6389 -84.2922 306° West 421 484 36,000  Level Indianapolis Center
05:20PM 38.7183 -84.3894 316° Northwest 418 481 36,000 -60 Level Indianapolis Center
05:21PM 38.8217 -84.5094 318° Northwest 417 480 35,900 -480 Descending Indianapolis Center
05:22PM 38.8947 -84.5931 318° Northwest 418 481 35,100 -1,020 Descending Indianapolis Center
05:23PM 38.9958 -84.7111 318° Northwest 423 487 33,900 -1,080 Descending Indianapolis Center
05:24PM 39.0828 -84.8119 318° Northwest 420 483 32,900 -1,020 Descending Indianapolis Center
05:25PM 39.1775 -84.9078 322° Northwest 428 493 31,900 -1,020 Descending Indianapolis Center
05:27PM 39.2842 -84.9708 335° Northwest 427 491 30,900 -1,020 Descending Indianapolis Center
05:28PM 39.3917 -85.0325 336° Northwest 425 489 29,900 -1,080 Descending Indianapolis Center
05:29PM 39.5203 -85.1075 336° Northwest 425 489 28,700 -960 Descending Indianapolis Center
05:30PM 39.6308 -85.1722 336° Northwest 432 497 28,000 -360 Descending Indianapolis Center
05:31PM 39.7408 -85.2344 336° Northwest 435 501 28,000 -360 Level Indianapolis Center
05:32PM 39.8494 -85.2989 336° Northwest 432 497 27,300 -840 Descending Indianapolis Center
05:33PM 39.9542 -85.3603 336° Northwest 421 484 26,300 -720 Descending Indianapolis Center
05:34PM 40.0764 -85.4317 336° Northwest 409 471 25,900 -720 Descending Indianapolis Center
05:35PM 40.1789 -85.4928 336° Northwest 408 470 24,900 -960 Descending Indianapolis Center
05:36PM 40.2811 -85.5528 336° Northwest 406 467 24,000 -480 Descending Indianapolis Center
05:37PM 40.3833 -85.6139 336° Northwest 407 468 24,000  Level Indianapolis Center
05:38PM 40.4689 -85.6622 337° Northwest 417 480 24,000 -240 Level Chicago Center
05:39PM 40.5672 -85.7128 339° North 388 447 23,600 -900 Descending Chicago Center
05:40PM 40.6631 -85.7561 341° North 369 425 22,200 -780 Descending Chicago Center
05:41PM 40.7614 -85.7981 342° North 363 418 22,000 -120 Descending Chicago Center
05:42PM 40.8556 -85.8406 341° North 359 413 22,000 -360 Level Chicago Center
05:43PM 40.9517 -85.8850 341° North 362 417 21,300 -1,260 Descending Chicago Center
05:44PM 41.0628 -85.9361 341° North 356 410 19,500 -1,560 Descending Chicago Center
05:45PM 41.1475 -85.9881 335° Northwest 341 392 18,100 -1,380 Descending Chicago Center
05:46PM 41.1894 -86.0889 299° West 316 364 16,700 -1,440 Descending Chicago Center
05:47PM 41.2325 -86.1883 300° West 312 359 15,200 -1,440 Descending Chicago Center
05:48PM 41.2808 -86.2833 304° West 311 358 13,800 -1,440 Descending Chicago Center
05:49PM 41.3308 -86.3808 304° West 317 365 12,300 -840 Descending Chicago Center
05:50PM 41.3828 -86.4819 304° West 328 377 12,100 -120 Descending Chicago Center
05:51PM 41.4436 -86.6022 304° West 326 375 12,100  Level Chicago Center
05:52PM 41.5033 -86.6925 311° West 327 376 12,100  Level Chicago Center
05:53PM 41.5794 -86.7431 334° Northwest 333 383 12,100  Level Chicago Center
05:54PM 41.6856 -86.7975 339° North 348 400 12,100  Level Chicago Center
05:55PM 41.7806 -86.8106 354° North 347 399 12,100  Level Chicago Center
05:56PM 41.8725 -86.8389 347° North 342 394 12,100 -420 Level Chicago Center
05:57PM 41.9203 -86.9375 303° West 323 372 11,300 -900 Descending Chicago Center
05:58PM 41.9614 -87.0428 298° West 322 371 10,300 -660 Descending Chicago Center
05:59PM 41.9819 -87.1797 281° West 313 360 10,000 -600 Descending Chicago Center
06:00PM 41.9825 -87.2797 270° West 277 319 9,100 -1,140 Descending Chicago Center
06:01PM 41.9831 -87.3764 270° West 263 303 7,700 -1,140 Descending Chicago Center
06:02PM 41.9825 -87.4706 270° West 255 293 6,800 -1,200 Descending Chicago Center
06:03PM 41.9833 -87.5789 271° West 246 283 5,300 -1,320 Descending Chicago Center
06:04PM 41.9839 -87.6561 271° West 227 261 4,100 -1,020 Descending Chicago Center
06:06PM 41.9836 -87.7233 270° West 207 238 3,200 -900 Descending Chicago Center
06:07PM 41.9842 -87.7819 271° West 182 209 2,300 -840 Descending Chicago Center
06:08PM 41.9836 -87.8408 269° West 169 194 1,500 -780 Descending Chicago Center